Navios Pollux — 3FPO2 — position and weather

sailwx.info

Track history (hours):
 
Tides and Currents Weather Stations Pressure Air Temp Water Temp Dewpoint Dewpoint Depression Visibility Wind Speed Wind Dir Waves Ship Positions

Navios Pollux

Last reported at 2017-Feb-17 02:04 UTC. Time now 2017-Feb-21 07:56 UTC.
Position N 16°11' W 062°52'.

Length 292 m; draft 8.6 m.

Type: Cargo ship. MMSI: 370290000.

Date/timePositionNaut miles runAvg speedWind from/ knotsBaromVisibWave heightAir tempDewpointWater temp
2017-Feb-17 02:04N 16°11' W 062°52'815.4
2017-Feb-17 01:33N 16°14' W 062°45'1515.3
2017-Feb-17 00:33N 16°20' W 062°30'1615.6
2017-Feb-16 23:33N 16°27' W 062°15'1615.6
2017-Feb-16 22:34N 16°33' W 062°00'1515.3
2017-Feb-16 21:33N 16°39' W 061°46'1615.6
2017-Feb-16 20:34N 16°45' W 061°31'1515.1
2017-Feb-16 19:33N 16°53' W 061°17'1515.1
2017-Feb-16 18:33N 17°01' W 061°04'1514.9
2017-Feb-16 17:34N 17°08' W 060°50'  
2017-Feb-10 10:06N 36°04' W 026°21'712.3
2017-Feb-10 09:33N 36°07' W 026°14'1212.4
2017-Feb-10 08:34N 36°14' W 026°01'1312.6
2017-Feb-10 07:33N 36°20' W 025°47'1312.8
2017-Feb-10 06:33N 36°27' W 025°34'1312.8
2017-Feb-10 05:33N 36°34' W 025°20'1312.9
2017-Feb-10 04:33N 36°41' W 025°07'1312.6
2017-Feb-10 03:34N 36°46' W 024°52'1212.5
2017-Feb-10 02:34N 36°50' W 024°38'1212.4
2017-Feb-10 01:34N 36°55' W 024°23'1212.3
2017-Feb-10 00:34N 37°00' W 024°10'1212.4
2017-Feb-09 23:34N 37°06' W 023°56'1212.4
2017-Feb-09 22:33N 37°11' W 023°42'1212.2
2017-Feb-09 21:32N 37°16' W 023°27'  
Track history (hours):
 
Tides and Currents Weather Stations Pressure Air Temp Water Temp Dewpoint Dewpoint Depression Visibility Wind Speed Wind Dir Waves Ship Positions

Navios Pollux

Last reported at 2017-Feb-17 02:04 UTC. Time now 2017-Feb-21 07:56 UTC.
Position N 16°11' W 062°52'.

Length 292 m; draft 8.6 m.

Type: Cargo ship. MMSI: 370290000.

Date/timePositionNaut miles runAvg speedWind from/ knotsBaromVisibWave heightAir tempDewpointWater temp
2017-Feb-17 02:04N 16°11' W 062°52'815.4
2017-Feb-17 01:33N 16°14' W 062°45'1515.3
2017-Feb-17 00:33N 16°20' W 062°30'1615.6
2017-Feb-16 23:33N 16°27' W 062°15'1615.6
2017-Feb-16 22:34N 16°33' W 062°00'1515.3
2017-Feb-16 21:33N 16°39' W 061°46'1615.6
2017-Feb-16 20:34N 16°45' W 061°31'1515.1
2017-Feb-16 19:33N 16°53' W 061°17'1515.1
2017-Feb-16 18:33N 17°01' W 061°04'1514.9
2017-Feb-16 17:34N 17°08' W 060°50'  
2017-Feb-10 10:06N 36°04' W 026°21'712.3
2017-Feb-10 09:33N 36°07' W 026°14'1212.4
2017-Feb-10 08:34N 36°14' W 026°01'1312.6
2017-Feb-10 07:33N 36°20' W 025°47'1312.8
2017-Feb-10 06:33N 36°27' W 025°34'1312.8
2017-Feb-10 05:33N 36°34' W 025°20'1312.9
2017-Feb-10 04:33N 36°41' W 025°07'1312.6
2017-Feb-10 03:34N 36°46' W 024°52'1212.5
2017-Feb-10 02:34N 36°50' W 024°38'1212.4
2017-Feb-10 01:34N 36°55' W 024°23'1212.3
2017-Feb-10 00:34N 37°00' W 024°10'1212.4
2017-Feb-09 23:34N 37°06' W 023°56'1212.4
2017-Feb-09 22:33N 37°11' W 023°42'1212.2
2017-Feb-09 21:32N 37°16' W 023°27'  

Dump ship's entire track history